Matthews, IN (46957)

11:45 AM EDT on July 25, 2016 (GMT -0400)
MY Yard Barn | | Change Station

Elev 853 ft 40.49 °N, 85.62 °W | Updated 2 minutes ago

Clear
Clear
80.1 °F
Feels Like 84 °F
N
1.6
Wind Variable Wind from WNW
Gusts 3.8 mph

Today
High -- | Low -- °F
--% Chance of Precip.
Yesterday
High -- | Low -- °F
Precip. -- in
Pressure 29.99 in
Visibility 10.0 miles
Clouds Clear
Heat Index 84 °F
Dew Point 72 °F
Humidity 76%
Rainfall 0.00 in
Snow Depth Not available.
6:33 AM 9:03 PM
Waning Gibbous, 65% visible
METAR KMIE 251453Z 28006KT 10SM CLR 27/20 A3003 RMK AO2 SLP156 T02670200 51006
Pressure 29.99 in
Visibility 10.0 miles
Clouds Clear
Heat Index 84 °F
Dew Point 72 °F
Humidity 76%
Rainfall 0.00 in
Snow Depth Not available.
6:33 AM 9:03 PM
Waning Gibbous, 65% visible
METAR KMIE 251453Z 28006KT 10SM CLR 27/20 A3003 RMK AO2 SLP156 T02670200 51006

10-Day Weather Forecast

Almanac

Astronomy

Jul. 25, 2016 Rise Set
Actual Time
Civil Twilight
Nautical Twilight
Astronomical Twilight
Moon
Length of Visible Light
Length of Day
Tomorrow will be .
, % of the Moon is Illuminated

Today's Extremes

State Highs State Lows

Community

WunderPhotos

Upload Photos

1,927,329 photos uploaded!

WunderBlog® & News

Nearby

Air Quality

  Air Quality AQ Index Pollutant
Not available.

Snow Depth

Station Depth Elevation

Earthquake Activity

City Distance Mag. Time & Date
Minimum magnitude displayed is 2.5.

Coastal Water Temperatures

Place Temperature

Stations

Nearby Weather Stations

Station Location Temp. Windchill Dew Point Humidity Wind Precip. Elev Updated Type
                   

Watches & Warnings

There are currently no watches in effect.